createdAt,value
2023-01-19T00:00:53.262Z,83.39
2023-01-19T00:03:20.658Z,83.24
2023-01-19T00:05:47.658Z,82.87
2023-01-19T00:08:16.941Z,82.98
2023-01-19T00:10:47.219Z,83.03
2023-01-19T00:13:15.483Z,82.58
2023-01-19T00:15:42.956Z,82.90
2023-01-19T00:18:11.201Z,82.75
2023-01-19T00:20:38.948Z,82.52
2023-01-19T00:23:08.190Z,82.68
2023-01-19T00:25:36.121Z,82.62
2023-01-19T00:28:03.094Z,82.85
2023-01-19T00:30:30.090Z,82.63
2023-01-19T00:32:57.135Z,82.63
2023-01-19T00:35:24.189Z,82.68
2023-01-19T00:37:51.350Z,82.63
2023-01-19T00:40:18.547Z,82.46
2023-01-19T00:42:46.052Z,82.71
2023-01-19T00:45:23.974Z,82.45
2023-01-19T00:47:57.505Z,82.29
2023-01-19T00:50:26.495Z,82.36
2023-01-19T00:52:55.521Z,82.71
2023-01-19T00:55:23.633Z,82.29
2023-01-19T00:57:50.552Z,82.25
2023-01-19T01:00:19.978Z,82.36
2023-01-19T01:02:49.301Z,82.20
2023-01-19T01:05:17.476Z,82.24
2023-01-19T01:07:45.422Z,82.49
2023-01-19T01:10:15.015Z,82.22
2023-01-19T01:12:42.155Z,82.06
2023-01-19T01:15:24.051Z,82.20
2023-01-19T01:17:53.180Z,82.46
2023-01-19T01:20:27.142Z,82.30
2023-01-19T01:22:54.870Z,82.62
2023-01-19T01:25:23.752Z,82.39
2023-01-19T01:27:51.248Z,81.97
2023-01-19T01:30:18.499Z,82.34
2023-01-19T01:32:45.461Z,82.35
2023-01-19T01:35:13.595Z,82.35
2023-01-19T01:37:42.659Z,82.43
2023-01-19T01:40:13.428Z,82.69
2023-01-19T01:42:40.708Z,82.58
2023-01-19T01:45:25.990Z,82.62
2023-01-19T01:47:54.679Z,82.68
2023-01-19T01:50:24.227Z,82.64
2023-01-19T01:53:08.898Z,82.87
2023-01-19T01:55:41.247Z,82.95
2023-01-19T01:58:10.615Z,83.08
2023-01-19T02:00:57.655Z,83.09
2023-01-19T02:03:26.562Z,82.81
2023-01-19T02:05:57.649Z,82.76
2023-01-19T02:09:05.240Z,83.00
2023-01-19T02:11:51.357Z,83.12
2023-01-19T02:14:19.170Z,83.02
2023-01-19T02:16:46.721Z,82.92
2023-01-19T02:19:22.767Z,83.11
2023-01-19T02:22:08.221Z,83.26
2023-01-19T02:24:36.131Z,82.78
2023-01-19T02:27:03.412Z,83.07
2023-01-19T02:29:30.748Z,82.71
2023-01-19T02:31:59.847Z,82.65
2023-01-19T02:34:26.881Z,82.39
2023-01-19T02:36:56.026Z,82.28
2023-01-19T02:39:29.199Z,81.73
2023-01-19T02:42:03.577Z,82.09
2023-01-19T02:44:31.912Z,82.17
2023-01-19T02:46:59.119Z,82.04
2023-01-19T02:49:30.186Z,82.00
2023-01-19T02:51:58.789Z,81.74
2023-01-19T02:54:42.112Z,81.80
2023-01-19T02:57:27.836Z,81.50
2023-01-19T03:00:04.084Z,81.68
2023-01-19T03:02:52.850Z,81.65
2023-01-19T03:05:49.660Z,81.42
2023-01-19T03:08:52.079Z,81.31
2023-01-19T03:11:19.352Z,81.48
2023-01-19T03:13:48.831Z,81.55
2023-01-19T03:16:41.061Z,81.72
2023-01-19T03:19:23.150Z,81.43
2023-01-19T03:21:56.448Z,81.62
2023-01-19T03:24:26.543Z,81.25
2023-01-19T03:27:01.085Z,81.18
2023-01-19T03:29:37.362Z,81.32
2023-01-19T03:32:09.442Z,81.35
2023-01-19T03:34:39.252Z,81.24
2023-01-19T03:37:08.550Z,81.12
2023-01-19T03:39:35.617Z,80.98
2023-01-19T03:42:08.467Z,80.94
2023-01-19T03:44:37.998Z,80.85
2023-01-19T03:47:07.396Z,81.03
2023-01-19T03:49:36.283Z,80.71
2023-01-19T03:52:03.509Z,80.75
2023-01-19T03:54:34.066Z,80.69
2023-01-19T03:57:01.018Z,80.41
2023-01-19T03:59:27.919Z,80.58
2023-01-19T04:01:54.989Z,80.26
2023-01-19T04:04:21.925Z,80.59
2023-01-19T04:06:49.255Z,80.36
2023-01-19T04:09:17.518Z,80.52
2023-01-19T04:11:45.501Z,80.64
2023-01-19T04:14:12.378Z,80.68
2023-01-19T04:16:39.853Z,80.74
2023-01-19T04:19:06.671Z,80.49
2023-01-19T04:21:33.586Z,80.72
2023-01-19T04:24:01.171Z,80.52
2023-01-19T04:26:28.385Z,80.69
2023-01-19T04:28:55.286Z,80.78
2023-01-19T04:31:23.377Z,80.46
2023-01-19T04:33:50.320Z,80.46
2023-01-19T04:36:17.406Z,80.37
2023-01-19T04:38:46.620Z,80.37
2023-01-19T04:41:13.545Z,80.40
2023-01-19T04:43:40.883Z,80.40
2023-01-19T04:46:07.865Z,80.53
2023-01-19T04:48:34.903Z,80.28
2023-01-19T04:51:01.892Z,80.12
2023-01-19T04:53:28.937Z,80.14
2023-01-19T04:55:56.130Z,80.12
2023-01-19T04:58:23.478Z,79.85
2023-01-19T05:00:51.276Z,80.05
2023-01-19T05:03:19.399Z,80.09
2023-01-19T05:05:46.885Z,79.93
2023-01-19T05:08:13.830Z,79.59
2023-01-19T05:10:40.860Z,79.78
2023-01-19T05:13:07.751Z,79.66
2023-01-19T05:15:34.684Z,79.86
2023-01-19T05:18:01.517Z,79.93
2023-01-19T05:20:28.473Z,79.80
2023-01-19T05:22:55.316Z,79.85
2023-01-19T05:25:22.423Z,79.49
2023-01-19T05:27:49.328Z,79.67
2023-01-19T05:30:16.544Z,79.66
2023-01-19T05:32:43.412Z,79.44
2023-01-19T05:35:10.565Z,79.67
2023-01-19T05:37:37.586Z,79.51
2023-01-19T05:40:05.429Z,79.54
2023-01-19T05:42:33.021Z,79.74
2023-01-19T05:45:00.342Z,79.57
2023-01-19T05:47:30.259Z,79.43
2023-01-19T05:49:57.672Z,79.62
2023-01-19T05:52:27.311Z,79.37
2023-01-19T05:54:55.260Z,79.63
2023-01-19T05:57:23.010Z,79.69
2023-01-19T05:59:51.903Z,79.41
2023-01-19T06:02:18.859Z,79.45
2023-01-19T06:04:45.863Z,79.82
2023-01-19T06:07:12.728Z,79.72
2023-01-19T06:09:39.756Z,79.85
2023-01-19T06:12:06.803Z,79.85
2023-01-19T06:14:33.763Z,79.59
2023-01-19T06:17:00.632Z,79.44
2023-01-19T06:19:27.813Z,79.55
2023-01-19T06:21:54.765Z,79.41
2023-01-19T06:24:21.932Z,79.53
2023-01-19T06:26:48.874Z,79.29
2023-01-19T06:29:15.920Z,79.33
2023-01-19T06:31:43.097Z,79.56
2023-01-19T06:34:10.448Z,79.60
2023-01-19T06:36:37.458Z,79.72
2023-01-19T06:39:06.106Z,79.69
2023-01-19T06:41:33.940Z,79.64
2023-01-19T06:44:01.373Z,79.98
2023-01-19T06:46:28.635Z,79.27
2023-01-19T06:48:55.774Z,79.87
2023-01-19T06:51:23.436Z,79.82
2023-01-19T06:53:50.503Z,79.71
2023-01-19T06:56:17.362Z,80.18
2023-01-19T06:58:46.694Z,80.14
2023-01-19T07:01:14.048Z,80.41
2023-01-19T07:03:41.029Z,80.20
2023-01-19T07:06:08.378Z,80.19
2023-01-19T07:08:36.984Z,80.26
2023-01-19T07:11:27.146Z,80.14
2023-01-19T07:13:55.605Z,80.13
2023-01-19T07:16:23.491Z,80.21
2023-01-19T07:18:51.067Z,80.43
2023-01-19T07:21:18.066Z,80.36
2023-01-19T07:23:48.772Z,80.77
2023-01-19T07:26:18.678Z,80.72
2023-01-19T07:28:47.357Z,80.69
2023-01-19T07:31:15.653Z,80.56
2023-01-19T07:33:42.722Z,80.48
2023-01-19T07:36:10.124Z,80.48
2023-01-19T07:38:37.124Z,80.65
2023-01-19T07:41:05.829Z,80.51
2023-01-19T07:43:33.248Z,80.62
2023-01-19T07:46:02.498Z,80.91
2023-01-19T07:48:30.024Z,80.55
2023-01-19T07:51:18.043Z,80.77
2023-01-19T07:53:50.716Z,80.96
2023-01-19T07:56:17.592Z,80.59
2023-01-19T07:58:44.432Z,80.48
2023-01-19T08:01:13.431Z,80.50
2023-01-19T08:03:40.783Z,80.75
2023-01-19T08:06:07.793Z,80.51
2023-01-19T08:08:35.164Z,77.33
2023-01-19T08:11:02.064Z,78.22
2023-01-19T08:13:28.878Z,78.55
2023-01-19T08:15:55.833Z,78.81
2023-01-19T08:18:22.948Z,79.00
2023-01-19T08:20:49.953Z,79.27
2023-01-19T08:23:18.183Z,79.59
2023-01-19T08:25:46.031Z,79.70
2023-01-19T08:28:15.135Z,79.79
2023-01-19T08:30:44.404Z,79.74
2023-01-19T08:33:12.710Z,80.07
2023-01-19T08:35:47.273Z,79.38
2023-01-19T08:38:14.894Z,79.44
2023-01-19T08:40:42.113Z,79.77
2023-01-19T08:43:14.515Z,79.77
2023-01-19T08:45:48.212Z,79.87
2023-01-19T08:48:17.164Z,79.72
2023-01-19T08:50:46.830Z,79.38
2023-01-19T08:53:14.417Z,79.96
2023-01-19T08:55:41.362Z,79.41
2023-01-19T08:58:08.951Z,79.91
2023-01-19T09:00:40.341Z,79.74
2023-01-19T09:03:09.428Z,79.68
2023-01-19T09:05:38.882Z,79.63
2023-01-19T09:08:09.471Z,79.47
2023-01-19T09:10:38.217Z,79.57
2023-01-19T09:13:08.363Z,78.63
2023-01-19T09:15:37.878Z,79.36
2023-01-19T09:18:07.231Z,79.69
2023-01-19T09:20:36.268Z,79.63
2023-01-19T09:23:03.573Z,79.34
2023-01-19T09:25:31.302Z,79.46
2023-01-19T09:28:00.298Z,79.49
2023-01-19T09:30:27.922Z,79.52
2023-01-19T09:32:55.101Z,79.43
2023-01-19T09:35:22.298Z,79.60
2023-01-19T09:37:49.284Z,79.60
2023-01-19T09:40:20.652Z,79.92
2023-01-19T09:43:33.963Z,79.98
2023-01-19T09:46:03.207Z,80.20
2023-01-19T09:48:51.060Z,80.26
2023-01-19T09:51:32.718Z,80.29
2023-01-19T09:54:14.173Z,80.72
2023-01-19T09:56:41.996Z,80.34
2023-01-19T09:59:36.664Z,80.33
2023-01-19T10:02:25.189Z,80.68
2023-01-19T10:05:02.484Z,81.05
2023-01-19T10:07:41.133Z,81.30
2023-01-19T10:10:27.694Z,81.79
2023-01-19T10:13:25.985Z,81.74
2023-01-19T10:16:23.650Z,82.08
2023-01-19T10:18:53.961Z,82.54
2023-01-19T10:21:37.819Z,82.56
2023-01-19T10:24:12.564Z,82.71
2023-01-19T10:27:13.690Z,82.71
2023-01-19T10:29:40.721Z,82.71
2023-01-19T10:32:13.833Z,82.88
2023-01-19T10:34:41.805Z,83.11
2023-01-19T10:37:17.678Z,83.34
2023-01-19T10:39:47.472Z,83.45
2023-01-19T10:42:17.023Z,83.58
2023-01-19T10:44:46.046Z,83.61
2023-01-19T10:47:18.256Z,83.42
2023-01-19T10:49:46.944Z,83.84
2023-01-19T10:52:29.179Z,83.91
2023-01-19T10:54:56.764Z,83.80
2023-01-19T10:57:43.532Z,84.00
2023-01-19T11:00:36.753Z,84.10
2023-01-19T11:03:28.543Z,84.01
2023-01-19T11:06:15.380Z,84.27
2023-01-19T11:08:44.297Z,84.36
2023-01-19T11:11:12.571Z,84.35
2023-01-19T11:13:41.076Z,84.13
2023-01-19T11:16:29.577Z,84.48
2023-01-19T11:18:58.096Z,84.44
2023-01-19T11:21:27.169Z,84.47
2023-01-19T11:23:59.398Z,84.84
2023-01-19T11:26:42.595Z,84.86
2023-01-19T11:29:27.438Z,84.88
2023-01-19T11:31:55.465Z,84.76
2023-01-19T11:34:26.548Z,84.88
2023-01-19T11:37:06.932Z,84.69
2023-01-19T11:39:49.861Z,85.04
2023-01-19T11:42:17.606Z,84.95
2023-01-19T11:45:17.274Z,85.26
2023-01-19T11:47:47.109Z,85.00
2023-01-19T11:50:14.159Z,85.29
2023-01-19T11:53:01.238Z,85.71
2023-01-19T11:55:53.990Z,85.45
2023-01-19T11:58:21.389Z,85.90
2023-01-19T12:01:05.476Z,85.74
2023-01-19T12:03:41.562Z,86.45
2023-01-19T12:06:18.971Z,86.31
2023-01-19T12:08:51.832Z,86.17
2023-01-19T12:11:23.408Z,86.63
2023-01-19T12:13:53.902Z,86.86
2023-01-19T12:16:23.307Z,86.64
2023-01-19T12:18:56.715Z,86.74
2023-01-19T12:21:23.684Z,86.98
2023-01-19T12:24:05.698Z,87.02
2023-01-19T12:26:35.613Z,87.06
2023-01-19T12:29:15.703Z,87.41
2023-01-19T12:31:43.438Z,87.38
2023-01-19T12:34:26.167Z,87.54
2023-01-19T12:36:56.920Z,87.99
2023-01-19T12:39:25.273Z,87.98
2023-01-19T12:42:15.352Z,88.34
2023-01-19T12:44:44.274Z,88.02
2023-01-19T12:47:12.984Z,88.03
2023-01-19T12:49:45.756Z,88.07
2023-01-19T12:52:24.444Z,88.70
2023-01-19T12:54:58.983Z,88.36
2023-01-19T12:57:56.088Z,88.41
2023-01-19T13:00:22.969Z,88.44
2023-01-19T13:03:26.805Z,88.77
2023-01-19T13:05:56.090Z,88.38
2023-01-19T13:08:25.342Z,88.33
2023-01-19T13:11:09.769Z,88.47
2023-01-19T13:13:48.466Z,88.54
2023-01-19T13:16:18.584Z,88.72
2023-01-19T13:18:55.207Z,88.90
2023-01-19T13:21:34.042Z,88.68
2023-01-19T13:24:14.970Z,88.70
2023-01-19T13:26:51.725Z,88.96
2023-01-19T13:29:41.205Z,88.89
2023-01-19T13:32:17.716Z,88.65
2023-01-19T13:34:59.421Z,88.72
2023-01-19T13:37:33.837Z,88.73
2023-01-19T13:40:02.073Z,88.54
2023-01-19T13:42:34.243Z,88.73
2023-01-19T13:45:15.620Z,88.79
2023-01-19T13:47:48.796Z,88.89
2023-01-19T13:50:31.212Z,89.07
2023-01-19T13:52:59.397Z,88.91
2023-01-19T13:55:28.930Z,88.92
2023-01-19T13:57:57.106Z,89.00
2023-01-19T14:00:26.696Z,88.99
2023-01-19T14:02:55.316Z,89.34
2023-01-19T14:05:29.506Z,89.18
2023-01-19T14:08:05.313Z,89.33
2023-01-19T14:10:34.273Z,89.31
2023-01-19T14:13:04.251Z,89.28
2023-01-19T14:15:34.399Z,89.53
2023-01-19T14:18:16.360Z,89.66
2023-01-19T14:20:56.953Z,89.60
2023-01-19T14:23:48.886Z,89.62
2023-01-19T14:26:37.833Z,89.59
2023-01-19T14:29:14.694Z,89.76
2023-01-19T14:31:50.289Z,89.79
2023-01-19T14:34:53.799Z,89.67
2023-01-19T14:37:35.245Z,89.76
2023-01-19T14:40:09.103Z,89.89
2023-01-19T14:42:39.447Z,89.87
2023-01-19T14:45:16.621Z,89.88
2023-01-19T14:47:45.335Z,90.18
2023-01-19T14:50:18.620Z,90.19
2023-01-19T14:53:10.805Z,90.29
2023-01-19T14:55:48.059Z,90.15
2023-01-19T14:58:18.047Z,90.34
2023-01-19T15:00:46.787Z,90.34
2023-01-19T15:03:14.810Z,90.48
2023-01-19T15:05:46.703Z,90.51
2023-01-19T15:08:43.505Z,90.73
2023-01-19T15:11:23.903Z,90.96
2023-01-19T15:13:51.687Z,90.99
2023-01-19T15:16:19.227Z,91.31
2023-01-19T15:18:46.148Z,91.29
2023-01-19T15:21:20.157Z,91.43
2023-01-19T15:23:47.715Z,91.23
2023-01-19T15:26:19.664Z,91.34
2023-01-19T15:28:48.878Z,91.67
2023-01-19T15:31:18.340Z,91.39
2023-01-19T15:33:45.730Z,91.32
2023-01-19T15:36:19.303Z,91.39
2023-01-19T15:38:47.224Z,91.37
2023-01-19T15:41:15.182Z,91.31
2023-01-19T15:43:42.200Z,91.27
2023-01-19T15:46:13.429Z,91.50
2023-01-19T15:48:40.488Z,91.67
2023-01-19T15:51:13.525Z,91.66
2023-01-19T15:53:43.869Z,91.76
2023-01-19T15:56:18.472Z,91.72
2023-01-19T15:58:45.585Z,91.76
2023-01-19T16:01:17.437Z,91.76
2023-01-19T16:03:44.735Z,91.84
2023-01-19T16:06:12.859Z,91.67
2023-01-19T16:08:40.241Z,91.62
2023-01-19T16:11:08.941Z,91.46
2023-01-19T16:13:36.312Z,91.37
2023-01-19T16:16:04.639Z,91.32
2023-01-19T16:18:31.907Z,91.31
2023-01-19T16:20:58.807Z,91.18
2023-01-19T16:23:25.843Z,91.15
2023-01-19T16:26:05.053Z,91.08
2023-01-19T16:28:32.287Z,91.12
2023-01-19T16:30:59.138Z,91.05
2023-01-19T16:33:26.177Z,90.99
2023-01-19T16:35:53.780Z,90.97
2023-01-19T16:38:23.381Z,91.02
2023-01-19T16:40:50.519Z,90.99
2023-01-19T16:43:18.652Z,90.98
2023-01-19T16:46:01.295Z,90.95
2023-01-19T16:48:28.967Z,91.03
2023-01-19T16:51:04.941Z,90.94
2023-01-19T16:53:34.929Z,91.00
2023-01-19T16:56:09.522Z,91.12
2023-01-19T16:58:39.461Z,91.40
2023-01-19T17:01:11.703Z,91.82
2023-01-19T17:03:39.223Z,91.77
2023-01-19T17:06:07.676Z,91.60
2023-01-19T17:08:35.263Z,91.58
2023-01-19T17:11:07.908Z,91.69
2023-01-19T17:13:34.962Z,91.63
2023-01-19T17:16:02.820Z,91.60
2023-01-19T17:18:32.855Z,91.44
2023-01-19T17:21:04.625Z,91.29
2023-01-19T17:23:32.089Z,91.27
2023-01-19T17:25:59.373Z,91.41
2023-01-19T17:28:26.858Z,91.29
2023-01-19T17:30:54.095Z,91.24
2023-01-19T17:33:22.927Z,91.41
2023-01-19T17:35:50.227Z,91.40
2023-01-19T17:38:17.751Z,91.40
2023-01-19T17:40:44.648Z,91.41
2023-01-19T17:43:11.574Z,91.56
2023-01-19T17:45:38.529Z,91.53
2023-01-19T17:48:05.667Z,91.78
2023-01-19T17:50:34.648Z,91.31
2023-01-19T17:53:01.929Z,91.37
2023-01-19T17:55:28.865Z,91.38
2023-01-19T17:57:55.842Z,91.43
2023-01-19T18:00:23.052Z,91.48
2023-01-19T18:02:51.271Z,91.60
2023-01-19T18:05:19.435Z,91.59
2023-01-19T18:07:47.797Z,91.59
2023-01-19T18:10:15.679Z,91.67
2023-01-19T18:12:43.641Z,91.72
2023-01-19T18:15:14.321Z,91.63
2023-01-19T18:17:42.842Z,91.53
2023-01-19T18:20:10.860Z,91.58
2023-01-19T18:22:38.061Z,91.60
2023-01-19T18:25:05.303Z,91.63
2023-01-19T18:27:32.365Z,91.62
2023-01-19T18:29:59.245Z,91.66
2023-01-19T18:32:27.282Z,91.69
2023-01-19T18:34:54.320Z,91.87
2023-01-19T18:37:21.528Z,91.79
2023-01-19T18:39:48.561Z,91.75
2023-01-19T18:42:15.584Z,91.69
2023-01-19T18:44:42.485Z,91.66
2023-01-19T18:47:09.591Z,91.72
2023-01-19T18:49:36.445Z,91.63
2023-01-19T18:52:04.008Z,91.79
2023-01-19T18:54:31.013Z,91.58
2023-01-19T18:56:59.328Z,91.53
2023-01-19T18:59:26.231Z,91.55
2023-01-19T19:01:53.717Z,91.49
2023-01-19T19:04:20.636Z,91.51
2023-01-19T19:06:47.702Z,91.54
2023-01-19T19:09:29.938Z,91.43
2023-01-19T19:11:56.901Z,91.45
2023-01-19T19:14:23.769Z,91.37
2023-01-19T19:16:50.823Z,91.27
2023-01-19T19:19:18.625Z,91.32
2023-01-19T19:21:45.554Z,91.37
2023-01-19T19:24:13.516Z,91.43
2023-01-19T19:26:41.981Z,90.95
2023-01-19T19:29:08.843Z,90.65
2023-01-19T19:31:35.769Z,90.57
2023-01-19T19:34:02.672Z,90.79
2023-01-19T19:36:29.950Z,90.64
2023-01-19T19:38:59.056Z,90.66
2023-01-19T19:41:28.140Z,90.72
2023-01-19T19:43:55.966Z,90.63
2023-01-19T19:46:24.481Z,90.52
2023-01-19T19:48:51.989Z,90.53
2023-01-19T19:51:27.843Z,90.44
2023-01-19T19:53:57.514Z,90.44
2023-01-19T19:56:25.713Z,90.30
2023-01-19T19:58:55.102Z,90.37
2023-01-19T20:01:27.202Z,90.41
2023-01-19T20:03:55.254Z,90.40
2023-01-19T20:06:24.369Z,90.48
2023-01-19T20:08:53.742Z,90.33
2023-01-19T20:11:27.148Z,90.33
2023-01-19T20:13:54.413Z,90.57
2023-01-19T20:16:23.210Z,90.77
2023-01-19T20:18:54.071Z,90.88
2023-01-19T20:21:30.253Z,91.12
2023-01-19T20:24:01.210Z,91.21
2023-01-19T20:26:32.755Z,91.23
2023-01-19T20:29:03.094Z,91.23
2023-01-19T20:31:32.973Z,91.27
2023-01-19T20:34:01.765Z,91.19
2023-01-19T20:36:29.020Z,91.11
2023-01-19T20:38:57.292Z,91.11
2023-01-19T20:41:25.651Z,91.10
2023-01-19T20:43:53.327Z,91.02
2023-01-19T20:46:20.318Z,90.92
2023-01-19T20:48:53.068Z,91.15
2023-01-19T20:51:20.496Z,91.24
2023-01-19T20:53:48.079Z,90.76
2023-01-19T20:56:15.572Z,90.73
2023-01-19T20:58:42.807Z,90.52
2023-01-19T21:01:17.547Z,90.30
2023-01-19T21:03:44.818Z,90.12
2023-01-19T21:06:13.463Z,90.32
2023-01-19T21:08:40.615Z,90.28
2023-01-19T21:11:08.575Z,90.21
2023-01-19T21:13:36.499Z,90.42
2023-01-19T21:16:04.344Z,90.30
2023-01-19T21:18:31.620Z,90.47
2023-01-19T21:20:58.868Z,90.44
2023-01-19T21:23:26.920Z,90.47
2023-01-19T21:25:56.342Z,90.69
2023-01-19T21:28:23.671Z,90.87
2023-01-19T21:30:51.909Z,90.97
2023-01-19T21:33:19.463Z,91.11
2023-01-19T21:35:57.511Z,91.08
2023-01-19T21:38:32.459Z,90.89
2023-01-19T21:40:59.520Z,90.85
2023-01-19T21:43:26.772Z,90.90
2023-01-19T21:45:53.755Z,90.97
2023-01-19T21:48:20.663Z,90.86
2023-01-19T21:50:56.960Z,90.90
2023-01-19T21:53:23.882Z,90.89
2023-01-19T21:55:50.792Z,91.05
2023-01-19T21:58:17.979Z,91.20
2023-01-19T22:00:45.527Z,91.24
2023-01-19T22:03:12.831Z,91.25
2023-01-19T22:05:39.767Z,91.17
2023-01-19T22:08:06.744Z,91.21
2023-01-19T22:10:37.582Z,91.11
2023-01-19T22:13:06.723Z,91.13
2023-01-19T22:15:33.826Z,91.05
2023-01-19T22:18:00.827Z,91.13
2023-01-19T22:20:27.940Z,91.14
2023-01-19T22:22:56.332Z,91.05
2023-01-19T22:25:27.769Z,90.95
2023-01-19T22:27:56.237Z,90.98
2023-01-19T22:30:23.240Z,91.01
2023-01-19T22:32:50.186Z,90.95
2023-01-19T22:35:17.103Z,90.94
2023-01-19T22:37:44.035Z,90.69
2023-01-19T22:40:11.699Z,90.79
2023-01-19T22:42:38.643Z,90.68
2023-01-19T22:45:06.041Z,90.65
2023-01-19T22:47:33.162Z,90.57
2023-01-19T22:50:00.049Z,90.56
2023-01-19T22:52:26.896Z,90.63
2023-01-19T22:54:56.382Z,90.62
2023-01-19T22:57:23.382Z,90.86
2023-01-19T22:59:50.254Z,90.90
2023-01-19T23:02:19.811Z,90.89
2023-01-19T23:04:47.521Z,90.86
2023-01-19T23:07:14.339Z,91.06
2023-01-19T23:09:41.312Z,90.97
2023-01-19T23:12:08.212Z,91.33
2023-01-19T23:14:36.237Z,91.28
2023-01-19T23:17:03.293Z,91.27
2023-01-19T23:19:30.290Z,91.39
2023-01-19T23:21:57.122Z,91.59
2023-01-19T23:24:26.683Z,91.84
2023-01-19T23:26:53.527Z,91.76
2023-01-19T23:29:20.669Z,91.68
2023-01-19T23:31:48.966Z,91.82
2023-01-19T23:34:16.667Z,91.93
2023-01-19T23:36:44.406Z,92.23
2023-01-19T23:39:22.443Z,92.04
2023-01-19T23:41:49.638Z,92.00
2023-01-19T23:44:17.310Z,91.95
2023-01-19T23:46:44.646Z,92.08
2023-01-19T23:49:12.518Z,92.05
2023-01-19T23:51:40.810Z,92.05
2023-01-19T23:54:08.322Z,92.20
2023-01-19T23:56:36.972Z,92.19
2023-01-19T23:59:06.359Z,92.38
